sensor_id;sensor_type;location;lat;lon;timestamp;P1;durP1;ratioP1;P2;durP2;ratioP2
81382;SDS011;70834;37.534;-122.308;2023-08-12T00:00:21;3.22;;;2.35;;
81382;SDS011;70834;37.534;-122.308;2023-08-12T00:02:43;3.47;;;2.15;;
81382;SDS011;70834;37.534;-122.308;2023-08-12T00:05:05;4.18;;;1.80;;
81382;SDS011;70834;37.534;-122.308;2023-08-12T00:07:27;5.03;;;2.05;;
81382;SDS011;70834;37.534;-122.308;2023-08-12T00:09:49;4.35;;;2.38;;
81382;SDS011;70834;37.534;-122.308;2023-08-12T00:12:10;3.85;;;2.28;;
81382;SDS011;70834;37.534;-122.308;2023-08-12T00:14:32;4.30;;;2.15;;
81382;SDS011;70834;37.534;-122.308;2023-08-12T00:16:53;5.45;;;2.03;;
81382;SDS011;70834;37.534;-122.308;2023-08-12T00:19:14;5.07;;;2.10;;
81382;SDS011;70834;37.534;-122.308;2023-08-12T00:21:36;6.20;;;2.15;;
81382;SDS011;70834;37.534;-122.308;2023-08-12T00:23:57;4.28;;;2.13;;
81382;SDS011;70834;37.534;-122.308;2023-08-12T00:26:19;3.90;;;2.00;;
81382;SDS011;70834;37.534;-122.308;2023-08-12T00:28:40;4.90;;;1.85;;
81382;SDS011;70834;37.534;-122.308;2023-08-12T00:31:02;3.33;;;2.40;;
81382;SDS011;70834;37.534;-122.308;2023-08-12T00:33:24;5.50;;;2.63;;
81382;SDS011;70834;37.534;-122.308;2023-08-12T00:35:45;6.97;;;2.58;;
81382;SDS011;70834;37.534;-122.308;2023-08-12T00:38:07;5.75;;;2.53;;
81382;SDS011;70834;37.534;-122.308;2023-08-12T00:40:28;3.67;;;2.28;;
81382;SDS011;70834;37.534;-122.308;2023-08-12T00:42:50;3.17;;;2.00;;
81382;SDS011;70834;37.534;-122.308;2023-08-12T00:45:11;4.50;;;2.13;;
81382;SDS011;70834;37.534;-122.308;2023-08-12T00:47:33;3.83;;;2.20;;
81382;SDS011;70834;37.534;-122.308;2023-08-12T00:49:55;5.63;;;2.40;;
81382;SDS011;70834;37.534;-122.308;2023-08-12T00:52:18;3.40;;;2.20;;
81382;SDS011;70834;37.534;-122.308;2023-08-12T00:54:39;3.70;;;2.00;;
81382;SDS011;70834;37.534;-122.308;2023-08-12T00:57:01;4.93;;;2.28;;
81382;SDS011;70834;37.534;-122.308;2023-08-12T00:59:23;4.75;;;2.33;;
81382;SDS011;70834;37.534;-122.308;2023-08-12T01:01:45;3.65;;;1.80;;
81382;SDS011;70834;37.534;-122.308;2023-08-12T01:04:08;3.53;;;2.30;;
81382;SDS011;70834;37.534;-122.308;2023-08-12T01:06:29;3.88;;;2.20;;
81382;SDS011;70834;37.534;-122.308;2023-08-12T01:08:51;7.30;;;2.67;;
81382;SDS011;70834;37.534;-122.308;2023-08-12T01:11:14;4.65;;;2.20;;
81382;SDS011;70834;37.534;-122.308;2023-08-12T01:13:51;4.95;;;2.40;;
81382;SDS011;70834;37.534;-122.308;2023-08-12T01:16:26;5.20;;;2.45;;
81382;SDS011;70834;37.534;-122.308;2023-08-12T01:18:52;4.35;;;2.30;;
81382;SDS011;70834;37.534;-122.308;2023-08-12T01:21:15;6.13;;;2.30;;
81382;SDS011;70834;37.534;-122.308;2023-08-12T01:23:37;3.92;;;1.90;;
81382;SDS011;70834;37.534;-122.308;2023-08-12T01:25:59;4.95;;;1.92;;
81382;SDS011;70834;37.534;-122.308;2023-08-12T01:28:20;3.58;;;2.33;;
81382;SDS011;70834;37.534;-122.308;2023-08-12T01:31:04;4.90;;;2.25;;
81382;SDS011;70834;37.534;-122.308;2023-08-12T01:34:06;5.28;;;2.72;;
81382;SDS011;70834;37.534;-122.308;2023-08-12T01:36:27;4.45;;;2.10;;
81382;SDS011;70834;37.534;-122.308;2023-08-12T01:38:52;4.10;;;2.70;;
81382;SDS011;70834;37.534;-122.308;2023-08-12T01:41:17;3.67;;;2.15;;
81382;SDS011;70834;37.534;-122.308;2023-08-12T01:43:40;3.97;;;1.90;;
81382;SDS011;70834;37.534;-122.308;2023-08-12T01:46:02;2.85;;;1.80;;
81382;SDS011;70834;37.534;-122.308;2023-08-12T01:48:24;3.30;;;2.00;;
81382;SDS011;70834;37.534;-122.308;2023-08-12T01:50:45;3.53;;;2.05;;
81382;SDS011;70834;37.534;-122.308;2023-08-12T01:53:08;3.20;;;1.98;;
81382;SDS011;70834;37.534;-122.308;2023-08-12T01:55:29;3.70;;;2.03;;
81382;SDS011;70834;37.534;-122.308;2023-08-12T01:57:51;3.47;;;2.20;;
81382;SDS011;70834;37.534;-122.308;2023-08-12T02:00:12;3.55;;;2.08;;
81382;SDS011;70834;37.534;-122.308;2023-08-12T02:02:34;2.90;;;1.98;;
81382;SDS011;70834;37.534;-122.308;2023-08-12T02:04:55;3.42;;;2.08;;
81382;SDS011;70834;37.534;-122.308;2023-08-12T02:07:17;4.97;;;2.20;;
81382;SDS011;70834;37.534;-122.308;2023-08-12T02:09:38;5.28;;;2.38;;
81382;SDS011;70834;37.534;-122.308;2023-08-12T02:12:00;4.13;;;2.03;;
81382;SDS011;70834;37.534;-122.308;2023-08-12T02:14:21;4.25;;;2.15;;
81382;SDS011;70834;37.534;-122.308;2023-08-12T02:16:42;3.83;;;2.10;;
81382;SDS011;70834;37.534;-122.308;2023-08-12T02:19:04;4.03;;;2.00;;
81382;SDS011;70834;37.534;-122.308;2023-08-12T02:21:25;4.05;;;2.22;;
81382;SDS011;70834;37.534;-122.308;2023-08-12T02:23:47;5.28;;;2.30;;
81382;SDS011;70834;37.534;-122.308;2023-08-12T02:26:08;2.78;;;2.10;;
81382;SDS011;70834;37.534;-122.308;2023-08-12T02:28:30;6.97;;;2.58;;
81382;SDS011;70834;37.534;-122.308;2023-08-12T02:30:51;6.07;;;2.38;;
81382;SDS011;70834;37.534;-122.308;2023-08-12T02:33:12;4.65;;;2.25;;
81382;SDS011;70834;37.534;-122.308;2023-08-12T02:35:34;2.75;;;2.03;;
81382;SDS011;70834;37.534;-122.308;2023-08-12T02:37:55;4.20;;;2.20;;
81382;SDS011;70834;37.534;-122.308;2023-08-12T02:40:17;3.78;;;2.55;;
81382;SDS011;70834;37.534;-122.308;2023-08-12T02:42:38;2.30;;;2.00;;
81382;SDS011;70834;37.534;-122.308;2023-08-12T02:45:00;3.53;;;2.40;;
81382;SDS011;70834;37.534;-122.308;2023-08-12T02:47:21;4.80;;;2.40;;
81382;SDS011;70834;37.534;-122.308;2023-08-12T02:49:42;4.18;;;2.40;;
81382;SDS011;70834;37.534;-122.308;2023-08-12T02:52:04;3.05;;;2.15;;
81382;SDS011;70834;37.534;-122.308;2023-08-12T02:54:26;4.10;;;2.30;;
81382;SDS011;70834;37.534;-122.308;2023-08-12T02:56:47;4.68;;;2.50;;
81382;SDS011;70834;37.534;-122.308;2023-08-12T02:59:10;4.70;;;2.63;;
81382;SDS011;70834;37.534;-122.308;2023-08-12T03:01:31;4.00;;;2.67;;
81382;SDS011;70834;37.534;-122.308;2023-08-12T03:03:53;3.67;;;2.97;;
81382;SDS011;70834;37.534;-122.308;2023-08-12T03:06:14;4.07;;;2.50;;
81382;SDS011;70834;37.534;-122.308;2023-08-12T03:08:36;3.92;;;2.65;;
81382;SDS011;70834;37.534;-122.308;2023-08-12T03:10:58;3.63;;;2.40;;
81382;SDS011;70834;37.534;-122.308;2023-08-12T03:13:23;4.63;;;2.83;;
81382;SDS011;70834;37.534;-122.308;2023-08-12T03:15:44;4.13;;;3.03;;
81382;SDS011;70834;37.534;-122.308;2023-08-12T03:18:07;4.78;;;2.58;;
81382;SDS011;70834;37.534;-122.308;2023-08-12T03:20:29;7.60;;;2.30;;
81382;SDS011;70834;37.534;-122.308;2023-08-12T03:22:50;4.65;;;2.90;;
81382;SDS011;70834;37.534;-122.308;2023-08-12T03:25:12;5.75;;;3.40;;
81382;SDS011;70834;37.534;-122.308;2023-08-12T03:27:35;5.88;;;2.83;;
81382;SDS011;70834;37.534;-122.308;2023-08-12T03:29:56;7.03;;;3.22;;
81382;SDS011;70834;37.534;-122.308;2023-08-12T03:32:18;6.93;;;3.22;;
81382;SDS011;70834;37.534;-122.308;2023-08-12T03:34:39;5.80;;;3.03;;
81382;SDS011;70834;37.534;-122.308;2023-08-12T03:37:01;8.27;;;3.70;;
81382;SDS011;70834;37.534;-122.308;2023-08-12T03:39:22;7.75;;;3.60;;
81382;SDS011;70834;37.534;-122.308;2023-08-12T03:41:43;4.05;;;3.13;;
81382;SDS011;70834;37.534;-122.308;2023-08-12T03:44:05;5.10;;;3.58;;
81382;SDS011;70834;37.534;-122.308;2023-08-12T03:46:26;6.47;;;2.90;;
81382;SDS011;70834;37.534;-122.308;2023-08-12T03:48:48;6.82;;;3.58;;
81382;SDS011;70834;37.534;-122.308;2023-08-12T03:51:09;6.43;;;3.80;;
81382;SDS011;70834;37.534;-122.308;2023-08-12T03:53:31;7.55;;;3.70;;
81382;SDS011;70834;37.534;-122.308;2023-08-12T03:55:52;8.77;;;3.95;;
81382;SDS011;70834;37.534;-122.308;2023-08-12T03:58:14;9.90;;;4.13;;
81382;SDS011;70834;37.534;-122.308;2023-08-12T04:00:35;10.13;;;4.20;;
81382;SDS011;70834;37.534;-122.308;2023-08-12T04:03:04;5.50;;;3.47;;
81382;SDS011;70834;37.534;-122.308;2023-08-12T04:05:26;9.27;;;4.07;;
81382;SDS011;70834;37.534;-122.308;2023-08-12T04:07:47;7.38;;;3.60;;
81382;SDS011;70834;37.534;-122.308;2023-08-12T04:10:09;6.82;;;3.92;;
81382;SDS011;70834;37.534;-122.308;2023-08-12T04:12:31;8.23;;;3.67;;
81382;SDS011;70834;37.534;-122.308;2023-08-12T04:14:52;6.30;;;3.85;;
81382;SDS011;70834;37.534;-122.308;2023-08-12T04:17:13;8.40;;;3.80;;
81382;SDS011;70834;37.534;-122.308;2023-08-12T04:19:35;8.70;;;3.92;;
81382;SDS011;70834;37.534;-122.308;2023-08-12T04:21:56;9.73;;;4.50;;
81382;SDS011;70834;37.534;-122.308;2023-08-12T04:24:18;8.30;;;3.88;;
81382;SDS011;70834;37.534;-122.308;2023-08-12T04:26:39;7.97;;;3.28;;
81382;SDS011;70834;37.534;-122.308;2023-08-12T04:29:00;6.63;;;3.35;;
81382;SDS011;70834;37.534;-122.308;2023-08-12T04:31:22;11.75;;;4.82;;
81382;SDS011;70834;37.534;-122.308;2023-08-12T04:33:43;7.43;;;3.30;;
81382;SDS011;70834;37.534;-122.308;2023-08-12T04:36:05;6.75;;;3.67;;
81382;SDS011;70834;37.534;-122.308;2023-08-12T04:38:26;7.03;;;3.60;;
81382;SDS011;70834;37.534;-122.308;2023-08-12T04:40:48;8.32;;;3.53;;
81382;SDS011;70834;37.534;-122.308;2023-08-12T04:43:10;8.93;;;3.33;;
81382;SDS011;70834;37.534;-122.308;2023-08-12T04:45:33;6.18;;;3.78;;
81382;SDS011;70834;37.534;-122.308;2023-08-12T04:47:55;7.38;;;3.80;;
81382;SDS011;70834;37.534;-122.308;2023-08-12T04:50:17;6.55;;;3.20;;
81382;SDS011;70834;37.534;-122.308;2023-08-12T04:52:39;6.70;;;3.40;;
81382;SDS011;70834;37.534;-122.308;2023-08-12T04:55:00;4.57;;;3.17;;
81382;SDS011;70834;37.534;-122.308;2023-08-12T04:57:23;6.47;;;3.78;;
81382;SDS011;70834;37.534;-122.308;2023-08-12T04:59:44;6.30;;;3.45;;
81382;SDS011;70834;37.534;-122.308;2023-08-12T05:02:06;6.15;;;4.20;;
81382;SDS011;70834;37.534;-122.308;2023-08-12T05:04:27;5.80;;;3.85;;
81382;SDS011;70834;37.534;-122.308;2023-08-12T05:06:48;4.32;;;3.08;;
81382;SDS011;70834;37.534;-122.308;2023-08-12T05:09:10;8.27;;;3.90;;
81382;SDS011;70834;37.534;-122.308;2023-08-12T05:11:31;8.32;;;4.50;;
81382;SDS011;70834;37.534;-122.308;2023-08-12T05:13:53;9.25;;;4.30;;
81382;SDS011;70834;37.534;-122.308;2023-08-12T05:16:14;7.18;;;3.80;;
81382;SDS011;70834;37.534;-122.308;2023-08-12T05:18:36;6.53;;;4.13;;
81382;SDS011;70834;37.534;-122.308;2023-08-12T05:20:57;7.47;;;4.03;;
81382;SDS011;70834;37.534;-122.308;2023-08-12T05:23:22;8.80;;;4.18;;
81382;SDS011;70834;37.534;-122.308;2023-08-12T05:25:43;8.40;;;4.05;;
81382;SDS011;70834;37.534;-122.308;2023-08-12T05:28:05;6.85;;;3.95;;
81382;SDS011;70834;37.534;-122.308;2023-08-12T05:30:26;7.90;;;3.97;;
81382;SDS011;70834;37.534;-122.308;2023-08-12T05:32:48;10.77;;;4.95;;
81382;SDS011;70834;37.534;-122.308;2023-08-12T05:35:09;7.68;;;3.45;;
81382;SDS011;70834;37.534;-122.308;2023-08-12T05:37:30;5.43;;;3.38;;
81382;SDS011;70834;37.534;-122.308;2023-08-12T05:39:52;7.15;;;4.22;;
81382;SDS011;70834;37.534;-122.308;2023-08-12T05:42:13;8.10;;;3.75;;
81382;SDS011;70834;37.534;-122.308;2023-08-12T05:44:35;9.40;;;4.82;;
81382;SDS011;70834;37.534;-122.308;2023-08-12T05:46:56;6.28;;;4.05;;
81382;SDS011;70834;37.534;-122.308;2023-08-12T05:49:18;6.70;;;3.83;;
81382;SDS011;70834;37.534;-122.308;2023-08-12T05:51:39;7.28;;;3.90;;
81382;SDS011;70834;37.534;-122.308;2023-08-12T05:54:01;8.18;;;4.60;;
81382;SDS011;70834;37.534;-122.308;2023-08-12T05:56:23;7.07;;;4.43;;
81382;SDS011;70834;37.534;-122.308;2023-08-12T05:58:44;6.15;;;3.58;;
81382;SDS011;70834;37.534;-122.308;2023-08-12T06:01:06;6.35;;;4.72;;
81382;SDS011;70834;37.534;-122.308;2023-08-12T06:03:27;6.47;;;3.65;;
81382;SDS011;70834;37.534;-122.308;2023-08-12T06:05:49;6.03;;;3.92;;
81382;SDS011;70834;37.534;-122.308;2023-08-12T06:08:10;9.25;;;3.88;;
81382;SDS011;70834;37.534;-122.308;2023-08-12T06:10:33;5.85;;;3.70;;
81382;SDS011;70834;37.534;-122.308;2023-08-12T06:13:13;6.82;;;4.40;;
81382;SDS011;70834;37.534;-122.308;2023-08-12T06:15:35;6.28;;;4.00;;
81382;SDS011;70834;37.534;-122.308;2023-08-12T06:17:56;7.18;;;4.00;;
81382;SDS011;70834;37.534;-122.308;2023-08-12T06:20:18;7.38;;;4.03;;
81382;SDS011;70834;37.534;-122.308;2023-08-12T06:22:39;6.07;;;4.20;;
81382;SDS011;70834;37.534;-122.308;2023-08-12T06:25:01;7.30;;;4.15;;
81382;SDS011;70834;37.534;-122.308;2023-08-12T06:27:22;6.20;;;4.00;;
81382;SDS011;70834;37.534;-122.308;2023-08-12T06:29:43;8.70;;;4.72;;
81382;SDS011;70834;37.534;-122.308;2023-08-12T06:32:05;8.13;;;4.78;;
81382;SDS011;70834;37.534;-122.308;2023-08-12T06:34:26;7.10;;;4.47;;
81382;SDS011;70834;37.534;-122.308;2023-08-12T06:36:48;8.85;;;4.57;;
81382;SDS011;70834;37.534;-122.308;2023-08-12T06:39:09;6.60;;;4.35;;
81382;SDS011;70834;37.534;-122.308;2023-08-12T06:41:31;6.38;;;4.32;;
81382;SDS011;70834;37.534;-122.308;2023-08-12T06:43:52;9.48;;;4.18;;
81382;SDS011;70834;37.534;-122.308;2023-08-12T06:46:14;7.97;;;5.53;;
81382;SDS011;70834;37.534;-122.308;2023-08-12T06:48:35;7.78;;;4.30;;
81382;SDS011;70834;37.534;-122.308;2023-08-12T06:50:56;8.77;;;5.07;;
81382;SDS011;70834;37.534;-122.308;2023-08-12T06:53:18;8.48;;;4.50;;
81382;SDS011;70834;37.534;-122.308;2023-08-12T06:55:43;12.57;;;6.00;;
81382;SDS011;70834;37.534;-122.308;2023-08-12T06:58:06;7.20;;;4.90;;
81382;SDS011;70834;37.534;-122.308;2023-08-12T07:00:27;8.93;;;5.10;;
81382;SDS011;70834;37.534;-122.308;2023-08-12T07:02:48;8.02;;;5.65;;
81382;SDS011;70834;37.534;-122.308;2023-08-12T07:05:10;12.65;;;5.18;;
81382;SDS011;70834;37.534;-122.308;2023-08-12T07:07:31;7.47;;;5.00;;
81382;SDS011;70834;37.534;-122.308;2023-08-12T07:09:53;10.75;;;5.13;;
81382;SDS011;70834;37.534;-122.308;2023-08-12T07:12:14;9.52;;;5.10;;
81382;SDS011;70834;37.534;-122.308;2023-08-12T07:14:36;8.75;;;4.80;;
81382;SDS011;70834;37.534;-122.308;2023-08-12T07:16:57;8.75;;;4.80;;
81382;SDS011;70834;37.534;-122.308;2023-08-12T07:19:18;10.60;;;5.10;;
81382;SDS011;70834;37.534;-122.308;2023-08-12T07:21:40;7.68;;;5.05;;
81382;SDS011;70834;37.534;-122.308;2023-08-12T07:24:01;6.82;;;4.53;;
81382;SDS011;70834;37.534;-122.308;2023-08-12T07:26:23;13.65;;;5.03;;
81382;SDS011;70834;37.534;-122.308;2023-08-12T07:28:44;9.10;;;4.63;;
81382;SDS011;70834;37.534;-122.308;2023-08-12T07:31:06;9.15;;;4.70;;
81382;SDS011;70834;37.534;-122.308;2023-08-12T07:33:27;7.40;;;4.55;;
81382;SDS011;70834;37.534;-122.308;2023-08-12T07:35:49;9.13;;;5.45;;
81382;SDS011;70834;37.534;-122.308;2023-08-12T07:38:10;10.25;;;5.72;;
81382;SDS011;70834;37.534;-122.308;2023-08-12T07:40:31;7.53;;;4.40;;
81382;SDS011;70834;37.534;-122.308;2023-08-12T07:42:53;7.03;;;4.78;;
81382;SDS011;70834;37.534;-122.308;2023-08-12T07:45:14;8.13;;;5.00;;
81382;SDS011;70834;37.534;-122.308;2023-08-12T07:47:36;7.57;;;5.57;;
81382;SDS011;70834;37.534;-122.308;2023-08-12T07:49:57;9.45;;;5.22;;
81382;SDS011;70834;37.534;-122.308;2023-08-12T07:52:19;9.88;;;4.93;;
81382;SDS011;70834;37.534;-122.308;2023-08-12T07:54:40;7.90;;;4.75;;
81382;SDS011;70834;37.534;-122.308;2023-08-12T07:57:02;6.63;;;5.00;;
81382;SDS011;70834;37.534;-122.308;2023-08-12T07:59:24;6.50;;;5.03;;
81382;SDS011;70834;37.534;-122.308;2023-08-12T08:01:46;7.82;;;4.88;;
81382;SDS011;70834;37.534;-122.308;2023-08-12T08:04:07;11.75;;;5.70;;
81382;SDS011;70834;37.534;-122.308;2023-08-12T08:06:29;7.43;;;5.97;;
81382;SDS011;70834;37.534;-122.308;2023-08-12T08:08:50;8.60;;;5.45;;
81382;SDS011;70834;37.534;-122.308;2023-08-12T08:11:12;8.27;;;5.38;;
81382;SDS011;70834;37.534;-122.308;2023-08-12T08:13:33;7.97;;;5.25;;
81382;SDS011;70834;37.534;-122.308;2023-08-12T08:15:55;7.32;;;5.30;;
81382;SDS011;70834;37.534;-122.308;2023-08-12T08:18:16;7.57;;;5.13;;
81382;SDS011;70834;37.534;-122.308;2023-08-12T08:20:38;11.57;;;5.28;;
81382;SDS011;70834;37.534;-122.308;2023-08-12T08:23:00;8.77;;;5.78;;
81382;SDS011;70834;37.534;-122.308;2023-08-12T08:25:21;9.18;;;5.60;;
81382;SDS011;70834;37.534;-122.308;2023-08-12T08:27:43;7.93;;;5.00;;
81382;SDS011;70834;37.534;-122.308;2023-08-12T08:30:05;5.40;;;4.82;;
81382;SDS011;70834;37.534;-122.308;2023-08-12T08:32:29;9.18;;;5.28;;
81382;SDS011;70834;37.534;-122.308;2023-08-12T08:34:50;7.05;;;5.20;;
81382;SDS011;70834;37.534;-122.308;2023-08-12T08:37:11;7.40;;;5.25;;
81382;SDS011;70834;37.534;-122.308;2023-08-12T08:39:33;5.97;;;5.10;;
81382;SDS011;70834;37.534;-122.308;2023-08-12T08:41:54;6.20;;;4.93;;
81382;SDS011;70834;37.534;-122.308;2023-08-12T08:44:16;8.02;;;5.60;;
81382;SDS011;70834;37.534;-122.308;2023-08-12T08:46:41;6.93;;;4.20;;
81382;SDS011;70834;37.534;-122.308;2023-08-12T08:49:04;6.35;;;4.47;;
81382;SDS011;70834;37.534;-122.308;2023-08-12T08:51:27;6.15;;;4.25;;
81382;SDS011;70834;37.534;-122.308;2023-08-12T08:53:54;6.03;;;4.30;;
81382;SDS011;70834;37.534;-122.308;2023-08-12T08:56:16;6.60;;;4.25;;
81382;SDS011;70834;37.534;-122.308;2023-08-12T08:58:38;5.05;;;3.92;;
81382;SDS011;70834;37.534;-122.308;2023-08-12T09:00:59;5.38;;;3.97;;
81382;SDS011;70834;37.534;-122.308;2023-08-12T09:03:22;6.30;;;4.40;;
81382;SDS011;70834;37.534;-122.308;2023-08-12T09:05:45;5.22;;;4.10;;
81382;SDS011;70834;37.534;-122.308;2023-08-12T09:08:07;5.75;;;4.10;;
81382;SDS011;70834;37.534;-122.308;2023-08-12T09:10:31;6.15;;;4.10;;
81382;SDS011;70834;37.534;-122.308;2023-08-12T09:12:57;5.35;;;3.90;;
81382;SDS011;70834;37.534;-122.308;2023-08-12T09:15:19;5.32;;;4.10;;
81382;SDS011;70834;37.534;-122.308;2023-08-12T09:17:40;5.28;;;4.57;;
81382;SDS011;70834;37.534;-122.308;2023-08-12T09:20:01;6.45;;;4.35;;
81382;SDS011;70834;37.534;-122.308;2023-08-12T09:22:28;5.78;;;4.25;;
81382;SDS011;70834;37.534;-122.308;2023-08-12T09:24:49;5.68;;;4.18;;
81382;SDS011;70834;37.534;-122.308;2023-08-12T09:27:11;5.38;;;4.07;;
81382;SDS011;70834;37.534;-122.308;2023-08-12T09:29:33;5.45;;;4.50;;
81382;SDS011;70834;37.534;-122.308;2023-08-12T09:32:04;6.60;;;4.70;;
81382;SDS011;70834;37.534;-122.308;2023-08-12T09:34:50;6.13;;;4.35;;
81382;SDS011;70834;37.534;-122.308;2023-08-12T09:37:13;6.13;;;4.75;;
81382;SDS011;70834;37.534;-122.308;2023-08-12T09:39:35;5.25;;;4.10;;
81382;SDS011;70834;37.534;-122.308;2023-08-12T09:41:56;5.13;;;4.30;;
81382;SDS011;70834;37.534;-122.308;2023-08-12T09:44:18;5.47;;;4.50;;
81382;SDS011;70834;37.534;-122.308;2023-08-12T09:46:39;7.78;;;4.18;;
81382;SDS011;70834;37.534;-122.308;2023-08-12T09:49:01;6.28;;;4.40;;
81382;SDS011;70834;37.534;-122.308;2023-08-12T09:51:24;5.55;;;4.25;;
81382;SDS011;70834;37.534;-122.308;2023-08-12T09:53:47;4.40;;;4.00;;
81382;SDS011;70834;37.534;-122.308;2023-08-12T09:56:12;5.30;;;4.03;;
81382;SDS011;70834;37.534;-122.308;2023-08-12T09:58:37;6.10;;;4.20;;
81382;SDS011;70834;37.534;-122.308;2023-08-12T10:01:03;7.75;;;5.35;;
81382;SDS011;70834;37.534;-122.308;2023-08-12T10:03:25;5.53;;;4.10;;
81382;SDS011;70834;37.534;-122.308;2023-08-12T10:05:47;6.70;;;4.30;;
81382;SDS011;70834;37.534;-122.308;2023-08-12T10:08:09;5.68;;;4.30;;
81382;SDS011;70834;37.534;-122.308;2023-08-12T10:10:34;5.18;;;3.85;;
81382;SDS011;70834;37.534;-122.308;2023-08-12T10:12:56;5.60;;;3.90;;
81382;SDS011;70834;37.534;-122.308;2023-08-12T10:15:18;5.65;;;3.95;;
81382;SDS011;70834;37.534;-122.308;2023-08-12T10:17:41;5.40;;;3.80;;
81382;SDS011;70834;37.534;-122.308;2023-08-12T10:20:04;5.30;;;3.75;;
81382;SDS011;70834;37.534;-122.308;2023-08-12T10:22:29;6.68;;;4.05;;
81382;SDS011;70834;37.534;-122.308;2023-08-12T10:24:51;4.38;;;3.45;;
81382;SDS011;70834;37.534;-122.308;2023-08-12T10:27:12;5.95;;;3.83;;
81382;SDS011;70834;37.534;-122.308;2023-08-12T10:29:35;5.40;;;3.45;;
81382;SDS011;70834;37.534;-122.308;2023-08-12T10:31:57;4.57;;;4.10;;
81382;SDS011;70834;37.534;-122.308;2023-08-12T10:34:22;6.10;;;4.05;;
81382;SDS011;70834;37.534;-122.308;2023-08-12T10:36:44;6.90;;;3.95;;
81382;SDS011;70834;37.534;-122.308;2023-08-12T10:39:07;5.45;;;3.50;;
81382;SDS011;70834;37.534;-122.308;2023-08-12T10:41:32;4.70;;;4.23;;
81382;SDS011;70834;37.534;-122.308;2023-08-12T10:44:00;7.35;;;3.70;;
81382;SDS011;70834;37.534;-122.308;2023-08-12T10:46:28;4.97;;;3.42;;
81382;SDS011;70834;37.534;-122.308;2023-08-12T10:48:57;4.15;;;3.75;;
81382;SDS011;70834;37.534;-122.308;2023-08-12T10:51:38;6.63;;;3.95;;
81382;SDS011;70834;37.534;-122.308;2023-08-12T10:54:22;6.25;;;3.60;;
81382;SDS011;70834;37.534;-122.308;2023-08-12T11:02:07;5.38;;;3.55;;
81382;SDS011;70834;37.534;-122.308;2023-08-12T11:04:39;6.18;;;3.85;;
81382;SDS011;70834;37.534;-122.308;2023-08-12T11:07:13;5.05;;;3.20;;
81382;SDS011;70834;37.534;-122.308;2023-08-12T11:09:36;5.57;;;3.40;;
81382;SDS011;70834;37.534;-122.308;2023-08-12T11:11:59;6.07;;;3.40;;
81382;SDS011;70834;37.534;-122.308;2023-08-12T11:14:21;7.00;;;3.60;;
81382;SDS011;70834;37.534;-122.308;2023-08-12T11:16:44;5.15;;;3.15;;
81382;SDS011;70834;37.534;-122.308;2023-08-12T11:19:08;6.35;;;3.17;;
81382;SDS011;70834;37.534;-122.308;2023-08-12T11:21:30;5.82;;;3.35;;
81382;SDS011;70834;37.534;-122.308;2023-08-12T11:23:52;3.95;;;2.85;;
81382;SDS011;70834;37.534;-122.308;2023-08-12T11:26:15;5.57;;;3.38;;
81382;SDS011;70834;37.534;-122.308;2023-08-12T11:28:37;6.63;;;3.30;;
81382;SDS011;70834;37.534;-122.308;2023-08-12T11:30:59;4.07;;;3.08;;
81382;SDS011;70834;37.534;-122.308;2023-08-12T11:33:21;4.57;;;3.10;;
81382;SDS011;70834;37.534;-122.308;2023-08-12T11:35:44;3.58;;;2.95;;
81382;SDS011;70834;37.534;-122.308;2023-08-12T11:38:06;4.10;;;3.30;;
81382;SDS011;70834;37.534;-122.308;2023-08-12T11:40:28;5.03;;;3.50;;
81382;SDS011;70834;37.534;-122.308;2023-08-12T11:42:50;5.60;;;3.45;;
81382;SDS011;70834;37.534;-122.308;2023-08-12T11:45:16;4.43;;;3.28;;
81382;SDS011;70834;37.534;-122.308;2023-08-12T11:47:43;4.60;;;3.38;;
81382;SDS011;70834;37.534;-122.308;2023-08-12T11:50:06;7.05;;;3.35;;
81382;SDS011;70834;37.534;-122.308;2023-08-12T11:52:29;6.43;;;3.33;;
81382;SDS011;70834;37.534;-122.308;2023-08-12T11:54:51;4.38;;;3.10;;
81382;SDS011;70834;37.534;-122.308;2023-08-12T11:57:13;6.20;;;3.65;;
81382;SDS011;70834;37.534;-122.308;2023-08-12T11:59:35;6.75;;;4.25;;
81382;SDS011;70834;37.534;-122.308;2023-08-12T12:01:57;4.72;;;3.35;;
81382;SDS011;70834;37.534;-122.308;2023-08-12T12:04:22;4.53;;;3.40;;
81382;SDS011;70834;37.534;-122.308;2023-08-12T12:06:43;3.55;;;3.20;;
81382;SDS011;70834;37.534;-122.308;2023-08-12T12:09:06;5.82;;;4.10;;
81382;SDS011;70834;37.534;-122.308;2023-08-12T12:11:32;6.78;;;3.50;;
81382;SDS011;70834;37.534;-122.308;2023-08-12T12:13:53;3.70;;;2.90;;
81382;SDS011;70834;37.534;-122.308;2023-08-12T12:16:15;4.57;;;3.42;;
81382;SDS011;70834;37.534;-122.308;2023-08-12T12:18:36;5.07;;;3.38;;
81382;SDS011;70834;37.534;-122.308;2023-08-12T12:20:58;3.75;;;3.28;;
81382;SDS011;70834;37.534;-122.308;2023-08-12T12:23:20;4.70;;;3.47;;
81382;SDS011;70834;37.534;-122.308;2023-08-12T12:25:42;4.60;;;3.60;;
81382;SDS011;70834;37.534;-122.308;2023-08-12T12:28:04;5.35;;;3.50;;
81382;SDS011;70834;37.534;-122.308;2023-08-12T12:30:25;4.57;;;3.58;;
81382;SDS011;70834;37.534;-122.308;2023-08-12T12:32:46;4.20;;;3.25;;
81382;SDS011;70834;37.534;-122.308;2023-08-12T12:35:09;5.45;;;4.10;;
81382;SDS011;70834;37.534;-122.308;2023-08-12T12:37:30;8.02;;;4.38;;
81382;SDS011;70834;37.534;-122.308;2023-08-12T12:39:52;7.45;;;4.03;;
81382;SDS011;70834;37.534;-122.308;2023-08-12T12:42:13;5.40;;;3.75;;
81382;SDS011;70834;37.534;-122.308;2023-08-12T12:44:35;5.30;;;4.07;;
81382;SDS011;70834;37.534;-122.308;2023-08-12T12:46:56;6.13;;;4.25;;
81382;SDS011;70834;37.534;-122.308;2023-08-12T12:49:18;5.80;;;3.67;;
81382;SDS011;70834;37.534;-122.308;2023-08-12T12:51:40;6.40;;;3.72;;
81382;SDS011;70834;37.534;-122.308;2023-08-12T12:54:01;7.18;;;4.50;;
81382;SDS011;70834;37.534;-122.308;2023-08-12T12:56:23;5.38;;;3.70;;
81382;SDS011;70834;37.534;-122.308;2023-08-12T12:58:44;4.60;;;3.33;;
81382;SDS011;70834;37.534;-122.308;2023-08-12T13:01:06;5.65;;;4.13;;
81382;SDS011;70834;37.534;-122.308;2023-08-12T13:03:28;5.18;;;4.45;;
81382;SDS011;70834;37.534;-122.308;2023-08-12T13:05:51;6.28;;;3.63;;
81382;SDS011;70834;37.534;-122.308;2023-08-12T13:08:13;4.00;;;3.20;;
81382;SDS011;70834;37.534;-122.308;2023-08-12T13:10:34;5.57;;;4.05;;
81382;SDS011;70834;37.534;-122.308;2023-08-12T13:12:56;5.93;;;3.75;;
81382;SDS011;70834;37.534;-122.308;2023-08-12T13:15:17;6.22;;;3.67;;
81382;SDS011;70834;37.534;-122.308;2023-08-12T13:17:38;6.70;;;4.15;;
81382;SDS011;70834;37.534;-122.308;2023-08-12T13:20:00;4.80;;;3.40;;
81382;SDS011;70834;37.534;-122.308;2023-08-12T13:22:22;5.28;;;3.67;;
81382;SDS011;70834;37.534;-122.308;2023-08-12T13:24:43;6.45;;;3.80;;
81382;SDS011;70834;37.534;-122.308;2023-08-12T13:27:04;6.07;;;4.10;;
81382;SDS011;70834;37.534;-122.308;2023-08-12T13:29:26;6.82;;;3.83;;
81382;SDS011;70834;37.534;-122.308;2023-08-12T13:31:48;5.32;;;3.50;;
81382;SDS011;70834;37.534;-122.308;2023-08-12T13:34:10;7.03;;;3.42;;
81382;SDS011;70834;37.534;-122.308;2023-08-12T13:36:31;3.88;;;3.13;;
81382;SDS011;70834;37.534;-122.308;2023-08-12T13:38:53;6.53;;;3.83;;
81382;SDS011;70834;37.534;-122.308;2023-08-12T13:41:14;6.38;;;4.03;;
81382;SDS011;70834;37.534;-122.308;2023-08-12T13:43:36;4.30;;;3.10;;
81382;SDS011;70834;37.534;-122.308;2023-08-12T13:46:00;4.55;;;2.80;;